createdAt,value
2023-04-02T00:01:41.272Z,11.85
2023-04-02T00:04:43.115Z,13.07
2023-04-02T00:07:53.842Z,11.57
2023-04-02T00:11:01.223Z,9.43
2023-04-02T00:14:17.874Z,14.48
2023-04-02T00:17:24.693Z,9.25
2023-04-02T00:20:34.339Z,11.75
2023-04-02T00:23:41.983Z,9.57
2023-04-02T00:26:49.554Z,11.15
2023-04-02T00:29:57.077Z,10.35
2023-04-02T00:32:59.376Z,10.60
2023-04-02T00:36:09.811Z,10.15
2023-04-02T00:39:19.093Z,7.53
2023-04-02T00:42:21.359Z,10.65
2023-04-02T00:45:24.879Z,9.10
2023-04-02T00:48:48.903Z,7.53
2023-04-02T00:51:56.843Z,7.82
2023-04-02T00:55:12.849Z,10.38
2023-04-02T00:58:27.300Z,9.60
2023-04-02T01:01:39.003Z,10.48
2023-04-02T01:04:41.808Z,9.20
2023-04-02T01:08:02.614Z,11.63
2023-04-02T01:11:35.391Z,10.82
2023-04-02T01:14:58.944Z,15.35
2023-04-02T01:18:18.715Z,11.45
2023-04-02T01:21:35.300Z,9.50
2023-04-02T01:24:37.478Z,14.43
2023-04-02T01:27:46.613Z,10.57
2023-04-02T01:30:53.005Z,9.50
2023-04-02T01:34:03.043Z,12.40
2023-04-02T01:37:13.994Z,6.82
2023-04-02T01:40:18.797Z,10.98
2023-04-02T01:44:08.432Z,8.38
2023-04-02T01:47:13.542Z,10.73
2023-04-02T01:50:37.328Z,10.73
2023-04-02T01:53:42.546Z,10.43
2023-04-02T01:56:47.275Z,10.70
2023-04-02T01:59:49.526Z,9.55
2023-04-02T02:02:52.270Z,9.32
2023-04-02T02:05:56.983Z,9.00
2023-04-02T02:09:05.449Z,7.70
2023-04-02T02:12:22.917Z,6.70
2023-04-02T02:15:27.690Z,9.20
2023-04-02T02:18:30.172Z,8.57
2023-04-02T02:21:48.223Z,8.20
2023-04-02T02:24:50.745Z,7.18
2023-04-02T02:28:01.600Z,8.48
2023-04-02T02:31:24.296Z,6.93
2023-04-02T02:34:39.242Z,7.07
2023-04-02T02:37:46.545Z,6.97
2023-04-02T02:40:57.911Z,10.93
2023-04-02T02:44:14.041Z,8.82
2023-04-02T02:47:25.103Z,7.80
2023-04-02T02:50:31.838Z,8.20
2023-04-02T02:53:53.663Z,10.38
2023-04-02T02:57:01.661Z,7.80
2023-04-02T03:00:08.310Z,13.23
2023-04-02T03:03:26.397Z,9.30
2023-04-02T03:06:33.027Z,9.90
2023-04-02T03:09:51.776Z,12.32
2023-04-02T03:13:08.581Z,11.18
2023-04-02T03:16:23.705Z,10.20
2023-04-02T03:19:35.997Z,15.68
2023-04-02T03:23:02.676Z,9.52
2023-04-02T03:26:10.655Z,8.60
2023-04-02T03:29:22.315Z,6.70
2023-04-02T03:32:32.128Z,7.97
2023-04-02T03:35:46.614Z,7.45
2023-04-02T03:39:17.266Z,7.30
2023-04-02T03:42:28.069Z,5.35
2023-04-02T03:45:39.175Z,5.07
2023-04-02T03:48:54.720Z,6.15
2023-04-02T03:52:06.328Z,9.55
2023-04-02T03:55:20.118Z,10.85
2023-04-02T03:58:38.906Z,9.57
2023-04-02T04:01:57.555Z,6.38
2023-04-02T04:05:01.889Z,6.22
2023-04-02T04:08:08.103Z,10.32
2023-04-02T04:11:16.093Z,8.63
2023-04-02T04:14:32.343Z,8.18
2023-04-02T04:17:58.082Z,9.75
2023-04-02T04:21:30.125Z,8.07
2023-04-02T04:24:39.454Z,6.90
2023-04-02T04:27:48.610Z,6.05
2023-04-02T04:31:08.730Z,8.30
2023-04-02T04:34:22.670Z,6.18
2023-04-02T04:37:33.780Z,6.85
2023-04-02T04:40:45.363Z,6.85
2023-04-02T04:43:52.051Z,6.63
2023-04-02T04:47:02.526Z,7.45
2023-04-02T04:50:16.030Z,5.57
2023-04-02T04:53:22.697Z,6.70
2023-04-02T04:56:29.919Z,9.88
2023-04-02T05:00:23.154Z,8.05
2023-04-02T05:03:51.376Z,6.68
2023-04-02T05:07:03.793Z,6.32
2023-04-02T05:10:19.521Z,4.30
2023-04-02T05:13:32.923Z,7.07
2023-04-02T05:16:46.189Z,7.53
2023-04-02T05:20:09.966Z,9.25
2023-04-02T05:23:27.125Z,6.18
2023-04-02T05:26:37.623Z,5.30
2023-04-02T05:29:44.655Z,5.70
2023-04-02T05:33:01.277Z,5.93
2023-04-02T05:36:11.842Z,5.05
2023-04-02T05:39:24.787Z,5.15
2023-04-02T05:42:36.471Z,4.88
2023-04-02T05:45:54.885Z,5.50
2023-04-02T05:49:00.186Z,5.20
2023-04-02T05:52:06.961Z,4.55
2023-04-02T05:55:14.863Z,6.50
2023-04-02T05:58:36.335Z,5.97
2023-04-02T06:02:27.138Z,5.85
2023-04-02T06:05:38.136Z,4.63
2023-04-02T06:08:47.617Z,4.80
2023-04-02T06:12:24.529Z,5.53
2023-04-02T06:15:31.848Z,5.28
2023-04-02T06:18:40.808Z,7.05
2023-04-02T06:21:49.774Z,9.80
2023-04-02T06:25:12.096Z,4.45
2023-04-02T06:28:21.544Z,3.83
2023-04-02T06:31:52.422Z,4.93
2023-04-02T06:34:56.296Z,5.60
2023-04-02T06:38:06.989Z,7.22
2023-04-02T06:41:19.917Z,5.65
2023-04-02T06:44:38.130Z,4.28
2023-04-02T06:47:57.288Z,8.43
2023-04-02T06:51:18.277Z,5.43
2023-04-02T06:54:23.149Z,5.30
2023-04-02T06:57:32.891Z,7.82
2023-04-02T07:00:39.234Z,6.05
2023-04-02T07:03:43.276Z,7.60
2023-04-02T07:06:54.632Z,9.05
2023-04-02T07:09:59.311Z,4.95
2023-04-02T07:13:04.006Z,7.97
2023-04-02T07:16:06.555Z,8.82
2023-04-02T07:19:19.239Z,7.15
2023-04-02T07:22:22.317Z,5.35
2023-04-02T07:25:35.133Z,5.30
2023-04-02T07:28:37.234Z,6.55
2023-04-02T07:31:41.768Z,7.40
2023-04-02T07:34:43.598Z,7.38
2023-04-02T07:37:45.800Z,5.55
2023-04-02T07:40:50.457Z,8.48
2023-04-02T07:43:54.851Z,6.90
2023-04-02T07:46:56.690Z,5.78
2023-04-02T07:49:58.647Z,7.18
2023-04-02T07:53:01.147Z,7.00
2023-04-02T07:56:04.830Z,6.53
2023-04-02T07:59:06.953Z,6.90
2023-04-02T08:02:20.326Z,7.40
2023-04-02T08:05:22.672Z,5.82
2023-04-02T08:08:25.564Z,8.48
2023-04-02T08:11:27.783Z,7.68
2023-04-02T08:14:32.735Z,5.93
2023-04-02T08:17:34.863Z,7.78
2023-04-02T08:20:37.147Z,6.50
2023-04-02T08:23:39.083Z,7.35
2023-04-02T08:26:41.712Z,11.40
2023-04-02T08:29:44.454Z,8.18
2023-04-02T08:32:46.417Z,10.97
2023-04-02T08:35:49.393Z,11.60
2023-04-02T08:38:51.321Z,9.85
2023-04-02T08:41:53.128Z,8.97
2023-04-02T08:45:23.576Z,9.27
2023-04-02T08:48:28.070Z,9.27
2023-04-02T08:51:36.514Z,9.68
2023-04-02T08:54:38.480Z,10.35
2023-04-02T08:57:50.533Z,7.35
2023-04-02T09:00:55.991Z,8.27
2023-04-02T09:03:59.617Z,7.68
2023-04-02T09:07:01.805Z,10.20
2023-04-02T09:10:04.501Z,7.00
2023-04-02T09:16:22.601Z,6.70
2023-04-02T09:19:44.661Z,7.95
2023-04-02T09:22:48.694Z,7.80
2023-04-02T09:26:03.680Z,10.27
2023-04-02T09:29:12.658Z,8.48
2023-04-02T09:32:22.320Z,8.13
2023-04-02T09:35:32.433Z,7.50
2023-04-02T09:38:35.521Z,10.93
2023-04-02T09:41:37.539Z,7.30
2023-04-02T09:44:39.405Z,5.95
2023-04-02T09:47:42.484Z,6.53
2023-04-02T09:50:44.501Z,7.15
2023-04-02T09:54:07.573Z,10.05
2023-04-02T09:57:28.163Z,11.55
2023-04-02T10:00:32.421Z,8.13
2023-04-02T10:03:35.077Z,10.70
2023-04-02T10:06:37.564Z,7.22
2023-04-02T10:09:48.569Z,7.40
2023-04-02T10:13:00.250Z,7.53
2023-04-02T10:16:07.517Z,9.60
2023-04-02T10:19:33.364Z,8.23
2023-04-02T10:22:35.234Z,11.27
2023-04-02T10:25:50.607Z,8.50
2023-04-02T10:29:12.843Z,8.68
2023-04-02T10:32:34.959Z,9.07
2023-04-02T10:35:43.233Z,10.15
2023-04-02T10:39:30.066Z,9.35
2023-04-02T10:42:42.373Z,9.70
2023-04-02T10:45:54.758Z,10.98
2023-04-02T10:49:15.580Z,9.18
2023-04-02T10:52:33.703Z,14.82
2023-04-02T10:55:43.276Z,12.38
2023-04-02T10:59:05.551Z,15.60
2023-04-02T11:02:38.969Z,12.27
2023-04-02T11:05:50.489Z,11.93
2023-04-02T11:08:58.860Z,11.90
2023-04-02T11:12:03.567Z,13.77
2023-04-02T11:15:19.829Z,13.25
2023-04-02T11:18:37.572Z,17.05
2023-04-02T11:21:54.931Z,19.77
2023-04-02T11:24:58.565Z,20.83
2023-04-02T11:28:27.222Z,17.23
2023-04-02T11:31:31.517Z,14.02
2023-04-02T11:34:42.980Z,11.57
2023-04-02T11:37:46.185Z,14.27
2023-04-02T11:40:55.197Z,12.68
2023-04-02T11:44:01.615Z,21.27
2023-04-02T11:47:26.746Z,14.52
2023-04-02T11:50:28.769Z,16.98
2023-04-02T11:53:34.545Z,17.47
2023-04-02T11:56:49.121Z,21.92
2023-04-02T12:00:18.495Z,20.30
2023-04-02T12:03:56.701Z,30.05
2023-04-02T12:07:18.463Z,25.30
2023-04-02T12:10:23.332Z,13.82
2023-04-02T12:13:40.605Z,13.05
2023-04-02T12:16:42.676Z,12.02
2023-04-02T12:19:53.730Z,9.80
2023-04-02T12:22:58.707Z,8.88
2023-04-02T12:26:08.954Z,16.63
2023-04-02T12:29:27.429Z,18.73
2023-04-02T12:32:33.493Z,16.30
2023-04-02T12:35:36.563Z,16.83
2023-04-02T12:38:53.877Z,17.63
2023-04-02T12:41:56.507Z,19.88
2023-04-02T12:44:58.903Z,15.23
2023-04-02T12:48:09.114Z,14.55
2023-04-02T12:51:11.341Z,21.02
2023-04-02T12:54:18.552Z,20.90
2023-04-02T12:57:26.465Z,16.73
2023-04-02T13:00:31.167Z,11.48
2023-04-02T13:03:40.713Z,13.27
2023-04-02T13:06:52.150Z,17.20
2023-04-02T13:09:57.026Z,13.80
2023-04-02T13:13:01.623Z,12.82
2023-04-02T13:16:07.552Z,22.75
2023-04-02T13:19:33.683Z,11.05
2023-04-02T13:22:35.753Z,15.40
2023-04-02T13:25:37.756Z,14.65
2023-04-02T13:28:39.691Z,12.10
2023-04-02T13:31:41.741Z,14.27
2023-04-02T13:34:43.760Z,11.00
2023-04-02T13:37:47.809Z,9.73
2023-04-02T13:40:49.704Z,9.48
2023-04-02T13:43:53.011Z,10.43
2023-04-02T13:46:57.725Z,8.65
2023-04-02T13:49:59.533Z,13.70
2023-04-02T13:53:09.700Z,12.13
2023-04-02T13:56:14.827Z,13.43
2023-04-02T13:59:16.785Z,11.17
2023-04-02T14:02:25.528Z,12.85
2023-04-02T14:05:46.903Z,16.55
2023-04-02T14:08:48.683Z,26.83
2023-04-02T14:12:04.735Z,31.33
2023-04-02T14:15:41.137Z,22.98
2023-04-02T14:19:01.700Z,13.73
2023-04-02T14:22:14.741Z,20.27
2023-04-02T14:25:37.709Z,16.08
2023-04-02T14:29:10.546Z,15.13
2023-04-02T14:32:21.035Z,14.95
2023-04-02T14:35:36.651Z,26.52
2023-04-02T14:38:44.954Z,15.95
2023-04-02T14:41:57.092Z,14.43
2023-04-02T14:45:12.717Z,16.95
2023-04-02T14:48:21.443Z,15.70
2023-04-02T14:51:33.346Z,13.25
2023-04-02T14:54:45.460Z,16.52
2023-04-02T14:57:53.633Z,12.60
2023-04-02T15:01:00.734Z,12.27
2023-04-02T15:04:12.825Z,20.85
2023-04-02T15:07:22.243Z,18.90
2023-04-02T15:10:52.348Z,25.52
2023-04-02T15:14:05.417Z,14.85
2023-04-02T15:17:11.433Z,14.32
2023-04-02T15:20:16.159Z,13.00
2023-04-02T15:23:31.217Z,13.75
2023-04-02T15:26:48.411Z,14.15
2023-04-02T15:29:51.301Z,19.13
2023-04-02T15:32:59.799Z,21.77
2023-04-02T15:36:19.971Z,43.33
2023-04-02T15:39:21.921Z,26.98
2023-04-02T15:42:33.172Z,17.00
2023-04-02T15:45:53.613Z,35.42
2023-04-02T15:49:20.449Z,53.03
2023-04-02T15:52:50.117Z,29.75
2023-04-02T15:56:23.049Z,47.15
2023-04-02T15:59:47.324Z,29.80
2023-04-02T16:03:02.674Z,24.63
2023-04-02T16:06:25.443Z,21.27
2023-04-02T16:09:30.942Z,24.25
2023-04-02T16:12:34.947Z,21.48
2023-04-02T16:15:46.141Z,33.03
2023-04-02T16:18:56.862Z,80.65
2023-04-02T16:22:05.670Z,49.90
2023-04-02T16:25:16.550Z,55.30
2023-04-02T16:28:22.977Z,41.72
2023-04-02T16:31:57.766Z,32.80
2023-04-02T16:38:54.902Z,32.63
2023-04-02T16:42:11.704Z,17.05
2023-04-02T16:45:19.726Z,17.42
2023-04-02T16:48:42.786Z,17.60
2023-04-02T16:52:04.940Z,112.97
2023-04-02T16:55:32.867Z,201.50
2023-04-02T16:58:43.816Z,224.57
2023-04-02T17:01:59.840Z,111.45
2023-04-02T17:05:29.459Z,139.05
2023-04-02T17:08:42.000Z,107.75
2023-04-02T17:12:01.290Z,81.85
2023-04-02T17:15:26.620Z,69.68
2023-04-02T17:18:34.028Z,104.93
2023-04-02T17:21:36.085Z,95.63
2023-04-02T17:25:04.746Z,82.82
2023-04-02T17:28:15.069Z,39.55
2023-04-02T17:31:30.943Z,14.70
2023-04-02T17:34:33.090Z,25.80
2023-04-02T17:38:00.394Z,37.58
2023-04-02T17:41:17.663Z,32.88
2023-04-02T17:44:42.755Z,77.75
2023-04-02T17:47:47.227Z,48.20
2023-04-02T17:51:11.594Z,36.63
2023-04-02T17:54:37.172Z,35.28
2023-04-02T17:58:11.269Z,37.22
2023-04-02T18:01:34.823Z,36.65
2023-04-02T18:04:58.267Z,102.70
2023-04-02T18:08:45.683Z,30.75
2023-04-02T18:12:29.535Z,27.05
2023-04-02T18:16:01.436Z,17.75
2023-04-02T18:19:12.030Z,128.70
2023-04-02T18:22:37.511Z,36.30
2023-04-02T18:25:50.430Z,28.95
2023-04-02T18:28:58.017Z,62.05
2023-04-02T18:32:27.368Z,43.60
2023-04-02T18:35:35.778Z,20.70
2023-04-02T18:38:54.025Z,17.58
2023-04-02T18:42:19.081Z,20.25
2023-04-02T18:45:35.493Z,15.30
2023-04-02T18:48:52.079Z,14.88
2023-04-02T18:52:11.323Z,25.98
2023-04-02T18:55:20.995Z,25.10
2023-04-02T18:58:29.828Z,26.23
2023-04-02T19:05:02.883Z,8.40
2023-04-02T19:08:28.815Z,7.35
2023-04-02T19:11:31.638Z,8.80
2023-04-02T19:17:45.067Z,9.15
2023-04-02T19:20:56.259Z,10.05
2023-04-02T19:24:16.449Z,12.85
2023-04-02T19:27:28.811Z,11.25
2023-04-02T19:30:49.966Z,10.75
2023-04-02T19:34:06.791Z,11.38
2023-04-02T19:37:13.778Z,8.70
2023-04-02T19:40:33.604Z,8.73
2023-04-02T19:43:38.676Z,9.15
2023-04-02T19:46:42.692Z,7.85
2023-04-02T19:49:45.058Z,7.60
2023-04-02T19:52:46.995Z,6.85
2023-04-02T19:55:51.015Z,6.97
2023-04-02T19:58:52.932Z,6.18
2023-04-02T20:01:54.845Z,7.10
2023-04-02T20:04:56.703Z,7.22
2023-04-02T20:08:00.136Z,6.18
2023-04-02T20:11:05.938Z,7.35
2023-04-02T20:14:07.839Z,5.90
2023-04-02T20:17:12.376Z,7.03
2023-04-02T20:20:16.983Z,6.78
2023-04-02T20:23:19.137Z,7.30
2023-04-02T20:26:23.377Z,7.18
2023-04-02T20:29:28.124Z,8.43
2023-04-02T20:32:30.187Z,8.48
2023-04-02T20:35:34.592Z,8.95
2023-04-02T20:38:39.872Z,8.88
2023-04-02T20:41:44.447Z,11.15
2023-04-02T20:44:46.438Z,12.40
2023-04-02T20:47:56.060Z,13.27
2023-04-02T20:50:59.821Z,13.00
2023-04-02T20:54:01.918Z,16.25
2023-04-02T20:57:05.365Z,16.47
2023-04-02T21:00:08.333Z,10.57
2023-04-02T21:06:14.315Z,7.40
2023-04-02T21:09:19.594Z,7.25
2023-04-02T21:12:21.541Z,6.53
2023-04-02T21:15:23.430Z,7.30
2023-04-02T21:18:26.188Z,7.85
2023-04-02T21:21:28.809Z,7.05
2023-04-02T21:24:30.754Z,8.10
2023-04-02T21:27:32.624Z,5.80
2023-04-02T21:30:34.485Z,6.68
2023-04-02T21:33:39.437Z,6.40
2023-04-02T21:36:45.639Z,6.53
2023-04-02T21:39:47.433Z,6.78
2023-04-02T21:42:52.929Z,6.30
2023-04-02T21:46:02.028Z,6.15
2023-04-02T21:49:05.370Z,6.05
2023-04-02T21:52:07.366Z,7.57
2023-04-02T21:55:09.450Z,7.45
2023-04-02T21:58:11.309Z,7.63
2023-04-02T22:01:24.342Z,7.13
2023-04-02T22:04:30.758Z,8.02
2023-04-02T22:07:32.746Z,6.95
2023-04-02T22:10:44.079Z,6.15
2023-04-02T22:13:48.067Z,7.13
2023-04-02T22:16:50.164Z,7.50
2023-04-02T22:19:54.656Z,6.72
2023-04-02T22:22:56.625Z,6.60
2023-04-02T22:25:59.818Z,7.30
2023-04-02T22:29:02.948Z,6.55
2023-04-02T22:32:04.939Z,7.03
2023-04-02T22:35:09.339Z,6.75
2023-04-02T22:38:11.314Z,6.53
2023-04-02T22:41:16.208Z,7.97
2023-04-02T22:44:18.065Z,9.82
2023-04-02T22:47:19.882Z,8.43
2023-04-02T22:50:24.751Z,8.80
2023-04-02T22:53:26.637Z,10.10
2023-04-02T22:56:32.070Z,8.48
2023-04-02T22:59:34.261Z,7.18
2023-04-02T23:02:36.257Z,7.93
2023-04-02T23:05:38.217Z,6.50
2023-04-02T23:08:40.934Z,6.45
2023-04-02T23:11:45.174Z,7.13
2023-04-02T23:14:47.509Z,8.18
2023-04-02T23:17:49.461Z,6.78
2023-04-02T23:20:54.369Z,8.17
2023-04-02T23:23:56.388Z,8.00
2023-04-02T23:26:58.315Z,7.70
2023-04-02T23:30:00.168Z,8.90
2023-04-02T23:33:03.579Z,8.00
2023-04-02T23:36:10.873Z,9.25
2023-04-02T23:39:13.996Z,7.30
2023-04-02T23:42:16.148Z,7.88
2023-04-02T23:45:20.272Z,8.82
2023-04-02T23:48:22.147Z,8.98
2023-04-02T23:51:24.845Z,9.98
2023-04-02T23:54:26.890Z,7.50
2023-04-02T23:57:28.743Z,8.50
